sensor_id;sensor_type;location;lat;lon;timestamp;temperature;humidity
15274;DHT22;7738;49.532;11.156;2023-08-31T00:02:05;11.90;99.90
15274;DHT22;7738;49.532;11.156;2023-08-31T00:04:36;12.00;99.90
15274;DHT22;7738;49.532;11.156;2023-08-31T00:07:07;11.90;99.90
15274;DHT22;7738;49.532;11.156;2023-08-31T00:09:37;11.90;99.90
15274;DHT22;7738;49.532;11.156;2023-08-31T00:12:10;12.00;99.90
15274;DHT22;7738;49.532;11.156;2023-08-31T00:14:40;12.00;99.90
15274;DHT22;7738;49.532;11.156;2023-08-31T00:17:10;12.00;99.90
15274;DHT22;7738;49.532;11.156;2023-08-31T00:19:40;12.00;99.90
15274;DHT22;7738;49.532;11.156;2023-08-31T00:22:10;12.00;99.90
15274;DHT22;7738;49.532;11.156;2023-08-31T00:24:41;12.00;99.90
15274;DHT22;7738;49.532;11.156;2023-08-31T00:27:13;12.00;99.90
15274;DHT22;7738;49.532;11.156;2023-08-31T00:29:44;12.00;99.90
15274;DHT22;7738;49.532;11.156;2023-08-31T00:32:16;12.00;99.90
15274;DHT22;7738;49.532;11.156;2023-08-31T00:34:49;12.00;99.90
15274;DHT22;7738;49.532;11.156;2023-08-31T00:37:20;12.00;99.90
15274;DHT22;7738;49.532;11.156;2023-08-31T00:39:50;12.00;99.90
15274;DHT22;7738;49.532;11.156;2023-08-31T00:42:25;12.10;99.90
15274;DHT22;7738;49.532;11.156;2023-08-31T00:44:56;12.10;99.90
15274;DHT22;7738;49.532;11.156;2023-08-31T00:47:27;12.20;99.90
15274;DHT22;7738;49.532;11.156;2023-08-31T00:49:58;12.10;99.90
15274;DHT22;7738;49.532;11.156;2023-08-31T00:52:30;12.00;99.90
15274;DHT22;7738;49.532;11.156;2023-08-31T00:55:03;12.00;99.90
15274;DHT22;7738;49.532;11.156;2023-08-31T00:57:38;12.00;99.90
15274;DHT22;7738;49.532;11.156;2023-08-31T01:00:10;12.00;99.90
15274;DHT22;7738;49.532;11.156;2023-08-31T01:02:47;12.00;99.90
15274;DHT22;7738;49.532;11.156;2023-08-31T01:05:29;12.00;99.90
15274;DHT22;7738;49.532;11.156;2023-08-31T01:08:08;14.40;99.90
15274;DHT22;7738;49.532;11.156;2023-08-31T01:10:46;12.00;99.90
15274;DHT22;7738;49.532;11.156;2023-08-31T01:13:24;12.00;99.90
15274;DHT22;7738;49.532;11.156;2023-08-31T01:15:59;14.20;99.90
15274;DHT22;7738;49.532;11.156;2023-08-31T01:18:31;12.00;99.90
15274;DHT22;7738;49.532;11.156;2023-08-31T01:21:11;11.90;99.90
15274;DHT22;7738;49.532;11.156;2023-08-31T01:23:50;11.90;99.90
15274;DHT22;7738;49.532;11.156;2023-08-31T01:26:22;12.00;99.90
15274;DHT22;7738;49.532;11.156;2023-08-31T01:28:53;12.00;99.90
15274;DHT22;7738;49.532;11.156;2023-08-31T01:31:25;12.00;99.90
15274;DHT22;7738;49.532;11.156;2023-08-31T01:33:56;12.00;99.90
15274;DHT22;7738;49.532;11.156;2023-08-31T01:36:29;12.00;99.90
15274;DHT22;7738;49.532;11.156;2023-08-31T01:39:06;12.00;99.90
15274;DHT22;7738;49.532;11.156;2023-08-31T01:41:37;12.00;99.90
15274;DHT22;7738;49.532;11.156;2023-08-31T01:44:13;12.00;99.90
15274;DHT22;7738;49.532;11.156;2023-08-31T01:46:46;12.00;99.90
15274;DHT22;7738;49.532;11.156;2023-08-31T01:49:16;12.00;99.90
15274;DHT22;7738;49.532;11.156;2023-08-31T01:51:46;12.00;99.90
15274;DHT22;7738;49.532;11.156;2023-08-31T01:54:19;12.00;99.90
15274;DHT22;7738;49.532;11.156;2023-08-31T01:56:49;12.00;99.90
15274;DHT22;7738;49.532;11.156;2023-08-31T01:59:19;12.00;99.90
15274;DHT22;7738;49.532;11.156;2023-08-31T02:01:49;12.00;99.90
15274;DHT22;7738;49.532;11.156;2023-08-31T02:04:20;12.00;99.90
15274;DHT22;7738;49.532;11.156;2023-08-31T02:06:50;12.00;99.90
15274;DHT22;7738;49.532;11.156;2023-08-31T02:09:23;12.00;99.90
15274;DHT22;7738;49.532;11.156;2023-08-31T02:11:53;12.00;99.90
15274;DHT22;7738;49.532;11.156;2023-08-31T02:14:25;14.50;99.90
15274;DHT22;7738;49.532;11.156;2023-08-31T02:16:56;11.90;99.90
15274;DHT22;7738;49.532;11.156;2023-08-31T02:19:26;12.00;99.90
15274;DHT22;7738;49.532;11.156;2023-08-31T02:21:56;12.00;99.90
15274;DHT22;7738;49.532;11.156;2023-08-31T02:24:29;12.00;99.90
15274;DHT22;7738;49.532;11.156;2023-08-31T02:26:59;12.90;99.90
15274;DHT22;7738;49.532;11.156;2023-08-31T02:29:29;12.00;99.90
15274;DHT22;7738;49.532;11.156;2023-08-31T02:31:59;12.00;99.90
15274;DHT22;7738;49.532;11.156;2023-08-31T02:34:30;12.00;99.90
15274;DHT22;7738;49.532;11.156;2023-08-31T02:37:00;13.50;99.90
15274;DHT22;7738;49.532;11.156;2023-08-31T02:39:32;11.90;99.90
15274;DHT22;7738;49.532;11.156;2023-08-31T02:42:03;11.90;99.90
15274;DHT22;7738;49.532;11.156;2023-08-31T02:44:35;11.80;99.90
15274;DHT22;7738;49.532;11.156;2023-08-31T02:47:05;11.80;99.90
15274;DHT22;7738;49.532;11.156;2023-08-31T02:49:35;11.90;99.90
15274;DHT22;7738;49.532;11.156;2023-08-31T02:52:06;11.80;99.90
15274;DHT22;7738;49.532;11.156;2023-08-31T02:54:38;11.80;99.90
15274;DHT22;7738;49.532;11.156;2023-08-31T02:57:08;11.80;99.90
15274;DHT22;7738;49.532;11.156;2023-08-31T02:59:38;11.70;99.90
15274;DHT22;7738;49.532;11.156;2023-08-31T03:02:09;11.70;99.90
15274;DHT22;7738;49.532;11.156;2023-08-31T03:04:41;11.70;99.90
15274;DHT22;7738;49.532;11.156;2023-08-31T03:07:11;11.70;99.90
15274;DHT22;7738;49.532;11.156;2023-08-31T03:09:48;11.60;99.90
15274;DHT22;7738;49.532;11.156;2023-08-31T03:12:19;11.60;99.90
15274;DHT22;7738;49.532;11.156;2023-08-31T03:14:49;11.50;99.90
15274;DHT22;7738;49.532;11.156;2023-08-31T03:17:19;11.50;99.90
15274;DHT22;7738;49.532;11.156;2023-08-31T03:19:49;11.50;99.90
15274;DHT22;7738;49.532;11.156;2023-08-31T03:22:20;11.40;99.90
15274;DHT22;7738;49.532;11.156;2023-08-31T03:24:52;11.40;99.90
15274;DHT22;7738;49.532;11.156;2023-08-31T03:27:22;11.30;99.90
15274;DHT22;7738;49.532;11.156;2023-08-31T03:29:53;11.30;99.90
15274;DHT22;7738;49.532;11.156;2023-08-31T03:32:23;11.30;99.90
15274;DHT22;7738;49.532;11.156;2023-08-31T03:34:53;11.20;99.90
15274;DHT22;7738;49.532;11.156;2023-08-31T03:37:23;11.20;99.90
15274;DHT22;7738;49.532;11.156;2023-08-31T03:39:58;11.30;99.90
15274;DHT22;7738;49.532;11.156;2023-08-31T03:42:29;11.30;99.90
15274;DHT22;7738;49.532;11.156;2023-08-31T03:45:00;11.30;99.90
15274;DHT22;7738;49.532;11.156;2023-08-31T03:47:31;11.30;99.90
15274;DHT22;7738;49.532;11.156;2023-08-31T03:50:01;11.30;99.90
15274;DHT22;7738;49.532;11.156;2023-08-31T03:52:31;11.30;99.90
15274;DHT22;7738;49.532;11.156;2023-08-31T03:55:05;11.30;99.90
15274;DHT22;7738;49.532;11.156;2023-08-31T03:57:35;11.20;99.90
15274;DHT22;7738;49.532;11.156;2023-08-31T04:00:16;11.20;99.90
15274;DHT22;7738;49.532;11.156;2023-08-31T04:02:46;11.20;99.90
15274;DHT22;7738;49.532;11.156;2023-08-31T04:05:21;11.20;99.90
15274;DHT22;7738;49.532;11.156;2023-08-31T04:07:51;11.10;99.90
15274;DHT22;7738;49.532;11.156;2023-08-31T04:10:24;11.10;99.90
15274;DHT22;7738;49.532;11.156;2023-08-31T04:12:56;11.10;99.90
15274;DHT22;7738;49.532;11.156;2023-08-31T04:15:28;11.00;99.90
15274;DHT22;7738;49.532;11.156;2023-08-31T04:17:58;11.00;99.90
15274;DHT22;7738;49.532;11.156;2023-08-31T04:20:28;11.00;99.90
15274;DHT22;7738;49.532;11.156;2023-08-31T04:22:59;10.90;99.90
15274;DHT22;7738;49.532;11.156;2023-08-31T04:25:32;10.80;99.90
15274;DHT22;7738;49.532;11.156;2023-08-31T04:28:02;10.80;99.90
15274;DHT22;7738;49.532;11.156;2023-08-31T04:30:32;10.70;99.90
15274;DHT22;7738;49.532;11.156;2023-08-31T04:33:03;10.70;99.90
15274;DHT22;7738;49.532;11.156;2023-08-31T04:35:34;10.70;99.90
15274;DHT22;7738;49.532;11.156;2023-08-31T04:38:04;10.70;99.90
15274;DHT22;7738;49.532;11.156;2023-08-31T04:40:37;10.60;99.90
15274;DHT22;7738;49.532;11.156;2023-08-31T04:43:07;10.50;99.90
15274;DHT22;7738;49.532;11.156;2023-08-31T04:45:38;10.60;99.90
15274;DHT22;7738;49.532;11.156;2023-08-31T04:48:08;10.60;99.90
15274;DHT22;7738;49.532;11.156;2023-08-31T04:50:38;10.50;99.90
15274;DHT22;7738;49.532;11.156;2023-08-31T04:53:08;10.50;99.90
15274;DHT22;7738;49.532;11.156;2023-08-31T04:55:41;10.50;99.90
15274;DHT22;7738;49.532;11.156;2023-08-31T04:58:11;10.70;99.90
15274;DHT22;7738;49.532;11.156;2023-08-31T05:00:42;10.60;99.90
15274;DHT22;7738;49.532;11.156;2023-08-31T05:03:12;10.60;99.90
15274;DHT22;7738;49.532;11.156;2023-08-31T05:05:43;10.60;99.90
15274;DHT22;7738;49.532;11.156;2023-08-31T05:08:13;12.00;99.90
15274;DHT22;7738;49.532;11.156;2023-08-31T05:10:47;10.60;99.90
15274;DHT22;7738;49.532;11.156;2023-08-31T05:13:17;10.60;99.90
15274;DHT22;7738;49.532;11.156;2023-08-31T05:15:47;10.60;99.90
15274;DHT22;7738;49.532;11.156;2023-08-31T05:18:17;10.70;99.90
15274;DHT22;7738;49.532;11.156;2023-08-31T05:20:47;10.70;99.90
15274;DHT22;7738;49.532;11.156;2023-08-31T05:23:18;10.70;99.90
15274;DHT22;7738;49.532;11.156;2023-08-31T05:25:51;10.70;99.90
15274;DHT22;7738;49.532;11.156;2023-08-31T05:28:23;10.80;99.90
15274;DHT22;7738;49.532;11.156;2023-08-31T05:30:56;10.80;99.90
15274;DHT22;7738;49.532;11.156;2023-08-31T05:33:26;10.80;99.90
15274;DHT22;7738;49.532;11.156;2023-08-31T05:36:02;10.80;99.90
15274;DHT22;7738;49.532;11.156;2023-08-31T05:38:33;10.80;99.90
15274;DHT22;7738;49.532;11.156;2023-08-31T05:41:06;10.80;99.90
15274;DHT22;7738;49.532;11.156;2023-08-31T05:43:37;10.80;99.90
15274;DHT22;7738;49.532;11.156;2023-08-31T05:46:08;10.90;99.90
15274;DHT22;7738;49.532;11.156;2023-08-31T05:48:38;11.00;99.90
15274;DHT22;7738;49.532;11.156;2023-08-31T05:51:08;11.00;99.90
15274;DHT22;7738;49.532;11.156;2023-08-31T05:53:38;11.00;99.90
15274;DHT22;7738;49.532;11.156;2023-08-31T05:56:11;11.00;99.90
15274;DHT22;7738;49.532;11.156;2023-08-31T05:58:41;11.10;99.90
15274;DHT22;7738;49.532;11.156;2023-08-31T06:01:11;11.10;99.90
15274;DHT22;7738;49.532;11.156;2023-08-31T06:03:41;11.10;99.90
15274;DHT22;7738;49.532;11.156;2023-08-31T06:06:11;11.10;99.90
15274;DHT22;7738;49.532;11.156;2023-08-31T06:08:42;11.20;99.90
15274;DHT22;7738;49.532;11.156;2023-08-31T06:11:15;11.10;99.90
15274;DHT22;7738;49.532;11.156;2023-08-31T06:13:45;11.30;99.90
15274;DHT22;7738;49.532;11.156;2023-08-31T06:16:15;11.30;99.90
15274;DHT22;7738;49.532;11.156;2023-08-31T06:18:45;11.30;99.90
15274;DHT22;7738;49.532;11.156;2023-08-31T06:21:15;11.40;99.90
15274;DHT22;7738;49.532;11.156;2023-08-31T06:23:45;11.50;99.90
15274;DHT22;7738;49.532;11.156;2023-08-31T06:26:18;11.60;99.90
15274;DHT22;7738;49.532;11.156;2023-08-31T06:28:48;11.70;99.90
15274;DHT22;7738;49.532;11.156;2023-08-31T06:31:18;11.70;99.90
15274;DHT22;7738;49.532;11.156;2023-08-31T06:33:48;11.90;99.90
15274;DHT22;7738;49.532;11.156;2023-08-31T06:36:18;11.90;99.90
15274;DHT22;7738;49.532;11.156;2023-08-31T06:38:48;12.00;99.90
15274;DHT22;7738;49.532;11.156;2023-08-31T06:41:21;12.10;99.90
15274;DHT22;7738;49.532;11.156;2023-08-31T06:43:51;12.20;99.90
15274;DHT22;7738;49.532;11.156;2023-08-31T06:46:21;12.30;99.90
15274;DHT22;7738;49.532;11.156;2023-08-31T06:48:52;12.40;99.90
15274;DHT22;7738;49.532;11.156;2023-08-31T06:51:22;12.40;99.90
15274;DHT22;7738;49.532;11.156;2023-08-31T06:53:52;12.50;99.90
15274;DHT22;7738;49.532;11.156;2023-08-31T06:56:25;12.50;99.90
15274;DHT22;7738;49.532;11.156;2023-08-31T06:58:55;12.60;99.90
15274;DHT22;7738;49.532;11.156;2023-08-31T07:01:25;12.70;99.90
15274;DHT22;7738;49.532;11.156;2023-08-31T07:03:56;12.70;99.90
15274;DHT22;7738;49.532;11.156;2023-08-31T07:06:27;12.70;99.90
15274;DHT22;7738;49.532;11.156;2023-08-31T07:08:57;12.70;99.90
15274;DHT22;7738;49.532;11.156;2023-08-31T07:11:29;12.70;99.90
15274;DHT22;7738;49.532;11.156;2023-08-31T07:13:59;12.80;99.90
15274;DHT22;7738;49.532;11.156;2023-08-31T07:16:30;12.90;99.90
15274;DHT22;7738;49.532;11.156;2023-08-31T07:19:00;13.00;99.90
15274;DHT22;7738;49.532;11.156;2023-08-31T07:21:30;13.00;99.90
15274;DHT22;7738;49.532;11.156;2023-08-31T07:24:00;13.00;99.90
15274;DHT22;7738;49.532;11.156;2023-08-31T07:26:34;13.00;99.90
15274;DHT22;7738;49.532;11.156;2023-08-31T07:29:04;13.10;99.90
15274;DHT22;7738;49.532;11.156;2023-08-31T07:31:34;13.00;99.90
15274;DHT22;7738;49.532;11.156;2023-08-31T07:34:05;13.20;99.90
15274;DHT22;7738;49.532;11.156;2023-08-31T07:36:35;13.20;99.90
15274;DHT22;7738;49.532;11.156;2023-08-31T07:39:06;13.30;99.90
15274;DHT22;7738;49.532;11.156;2023-08-31T07:41:39;13.30;99.90
15274;DHT22;7738;49.532;11.156;2023-08-31T07:44:09;13.30;99.90
15274;DHT22;7738;49.532;11.156;2023-08-31T07:46:39;13.30;99.90
15274;DHT22;7738;49.532;11.156;2023-08-31T07:49:09;13.40;99.90
15274;DHT22;7738;49.532;11.156;2023-08-31T07:51:40;13.60;99.90
15274;DHT22;7738;49.532;11.156;2023-08-31T07:54:10;13.60;99.90
15274;DHT22;7738;49.532;11.156;2023-08-31T07:56:42;13.60;99.90
15274;DHT22;7738;49.532;11.156;2023-08-31T07:59:12;13.70;99.90
15274;DHT22;7738;49.532;11.156;2023-08-31T08:01:43;13.70;99.90
15274;DHT22;7738;49.532;11.156;2023-08-31T08:04:13;13.70;99.90
15274;DHT22;7738;49.532;11.156;2023-08-31T08:06:48;13.80;99.90
15274;DHT22;7738;49.532;11.156;2023-08-31T08:09:19;13.80;99.90
15274;DHT22;7738;49.532;11.156;2023-08-31T08:11:51;13.70;99.90
15274;DHT22;7738;49.532;11.156;2023-08-31T08:14:21;13.70;99.90
15274;DHT22;7738;49.532;11.156;2023-08-31T08:16:51;13.70;99.90
15274;DHT22;7738;49.532;11.156;2023-08-31T08:19:22;13.70;99.90
15274;DHT22;7738;49.532;11.156;2023-08-31T08:21:52;13.90;99.90
15274;DHT22;7738;49.532;11.156;2023-08-31T08:24:22;14.20;99.90
15274;DHT22;7738;49.532;11.156;2023-08-31T08:26:55;14.30;99.90
15274;DHT22;7738;49.532;11.156;2023-08-31T08:29:26;14.50;99.90
15274;DHT22;7738;49.532;11.156;2023-08-31T08:31:56;15.90;99.90
15274;DHT22;7738;49.532;11.156;2023-08-31T08:34:26;14.40;99.90
15274;DHT22;7738;49.532;11.156;2023-08-31T08:36:56;14.30;99.90
15274;DHT22;7738;49.532;11.156;2023-08-31T08:39:26;15.50;99.90
15274;DHT22;7738;49.532;11.156;2023-08-31T08:41:59;14.20;99.90
15274;DHT22;7738;49.532;11.156;2023-08-31T08:44:32;14.20;99.90
15274;DHT22;7738;49.532;11.156;2023-08-31T08:47:03;14.20;99.90
15274;DHT22;7738;49.532;11.156;2023-08-31T08:49:33;14.40;99.90
15274;DHT22;7738;49.532;11.156;2023-08-31T08:52:04;14.60;99.90
15274;DHT22;7738;49.532;11.156;2023-08-31T08:54:35;15.00;99.90
15274;DHT22;7738;49.532;11.156;2023-08-31T08:57:09;15.20;99.90
15274;DHT22;7738;49.532;11.156;2023-08-31T08:59:39;15.20;99.90
15274;DHT22;7738;49.532;11.156;2023-08-31T09:02:10;15.20;99.90
15274;DHT22;7738;49.532;11.156;2023-08-31T09:04:41;15.10;99.90
15274;DHT22;7738;49.532;11.156;2023-08-31T09:07:11;15.00;99.90
15274;DHT22;7738;49.532;11.156;2023-08-31T09:09:59;15.10;99.90
15274;DHT22;7738;49.532;11.156;2023-08-31T09:12:36;15.30;99.90
15274;DHT22;7738;49.532;11.156;2023-08-31T09:15:07;15.50;99.90
15274;DHT22;7738;49.532;11.156;2023-08-31T09:17:38;15.90;99.90
15274;DHT22;7738;49.532;11.156;2023-08-31T09:20:10;16.10;99.90
15274;DHT22;7738;49.532;11.156;2023-08-31T09:22:43;16.00;99.90
15274;DHT22;7738;49.532;11.156;2023-08-31T09:25:14;15.90;99.90
15274;DHT22;7738;49.532;11.156;2023-08-31T09:27:48;15.80;99.90
15274;DHT22;7738;49.532;11.156;2023-08-31T09:30:18;15.70;99.90
15274;DHT22;7738;49.532;11.156;2023-08-31T09:32:52;15.60;99.90
15274;DHT22;7738;49.532;11.156;2023-08-31T09:35:22;15.60;99.90
15274;DHT22;7738;49.532;11.156;2023-08-31T09:37:57;15.90;99.90
15274;DHT22;7738;49.532;11.156;2023-08-31T09:40:29;16.40;99.90
15274;DHT22;7738;49.532;11.156;2023-08-31T09:43:02;17.00;99.90
15274;DHT22;7738;49.532;11.156;2023-08-31T09:45:33;17.50;99.90
15274;DHT22;7738;49.532;11.156;2023-08-31T09:48:07;17.90;99.90
15274;DHT22;7738;49.532;11.156;2023-08-31T09:50:38;17.70;99.90
15274;DHT22;7738;49.532;11.156;2023-08-31T09:53:10;17.40;99.90
15274;DHT22;7738;49.532;11.156;2023-08-31T09:55:41;17.10;99.90
15274;DHT22;7738;49.532;11.156;2023-08-31T09:58:17;16.60;99.90
15274;DHT22;7738;49.532;11.156;2023-08-31T10:00:50;16.30;99.90
15274;DHT22;7738;49.532;11.156;2023-08-31T10:03:20;17.20;99.90
15274;DHT22;7738;49.532;11.156;2023-08-31T10:05:50;15.80;99.90
15274;DHT22;7738;49.532;11.156;2023-08-31T10:08:21;15.70;99.90
15274;DHT22;7738;49.532;11.156;2023-08-31T10:10:51;15.50;99.90
15274;DHT22;7738;49.532;11.156;2023-08-31T10:13:25;15.40;99.90
15274;DHT22;7738;49.532;11.156;2023-08-31T10:15:58;16.10;99.90
15274;DHT22;7738;49.532;11.156;2023-08-31T10:18:31;15.40;99.90
15274;DHT22;7738;49.532;11.156;2023-08-31T10:21:02;15.50;99.90
15274;DHT22;7738;49.532;11.156;2023-08-31T10:23:33;15.60;99.90
15274;DHT22;7738;49.532;11.156;2023-08-31T10:26:05;15.70;99.90
15274;DHT22;7738;49.532;11.156;2023-08-31T10:28:42;15.70;99.90
15274;DHT22;7738;49.532;11.156;2023-08-31T10:31:16;15.70;99.90
15274;DHT22;7738;49.532;11.156;2023-08-31T10:33:55;15.60;99.90
15274;DHT22;7738;49.532;11.156;2023-08-31T10:36:36;15.60;99.90
15274;DHT22;7738;49.532;11.156;2023-08-31T10:39:11;15.50;99.90
15274;DHT22;7738;49.532;11.156;2023-08-31T10:41:52;15.50;99.90
15274;DHT22;7738;49.532;11.156;2023-08-31T10:44:26;15.60;99.90
15274;DHT22;7738;49.532;11.156;2023-08-31T10:46:59;15.50;99.90
15274;DHT22;7738;49.532;11.156;2023-08-31T10:49:30;15.60;99.90
15274;DHT22;7738;49.532;11.156;2023-08-31T10:52:15;15.70;99.90
15274;DHT22;7738;49.532;11.156;2023-08-31T10:55:07;15.70;99.90
15274;DHT22;7738;49.532;11.156;2023-08-31T10:57:37;16.30;99.90
15274;DHT22;7738;49.532;11.156;2023-08-31T11:00:11;17.20;99.90
15274;DHT22;7738;49.532;11.156;2023-08-31T11:02:44;17.90;99.90
15274;DHT22;7738;49.532;11.156;2023-08-31T11:05:15;18.20;98.80
15274;DHT22;7738;49.532;11.156;2023-08-31T11:07:50;18.00;98.70
15274;DHT22;7738;49.532;11.156;2023-08-31T11:10:21;18.30;98.30
15274;DHT22;7738;49.532;11.156;2023-08-31T11:12:55;18.80;98.40
15274;DHT22;7738;49.532;11.156;2023-08-31T11:15:28;18.80;96.10
15274;DHT22;7738;49.532;11.156;2023-08-31T11:17:59;18.60;95.80
15274;DHT22;7738;49.532;11.156;2023-08-31T11:20:30;19.90;98.20
15274;DHT22;7738;49.532;11.156;2023-08-31T11:23:01;18.40;97.60
15274;DHT22;7738;49.532;11.156;2023-08-31T11:25:32;18.50;94.50
15274;DHT22;7738;49.532;11.156;2023-08-31T11:28:03;18.40;96.90
15274;DHT22;7738;49.532;11.156;2023-08-31T11:30:38;18.10;95.20
15274;DHT22;7738;49.532;11.156;2023-08-31T11:33:10;17.70;95.70
15274;DHT22;7738;49.532;11.156;2023-08-31T11:35:43;17.40;96.00
15274;DHT22;7738;49.532;11.156;2023-08-31T11:38:14;17.20;96.40
15274;DHT22;7738;49.532;11.156;2023-08-31T11:40:45;16.90;98.00
15274;DHT22;7738;49.532;11.156;2023-08-31T11:43:19;16.90;98.90
15274;DHT22;7738;49.532;11.156;2023-08-31T11:45:52;17.00;99.40
15274;DHT22;7738;49.532;11.156;2023-08-31T11:48:25;17.00;98.20
15274;DHT22;7738;49.532;11.156;2023-08-31T11:50:55;16.80;99.60
15274;DHT22;7738;49.532;11.156;2023-08-31T11:53:26;17.30;98.40
15274;DHT22;7738;49.532;11.156;2023-08-31T11:55:57;16.80;97.60
15274;DHT22;7738;49.532;11.156;2023-08-31T11:58:28;16.70;98.00
15274;DHT22;7738;49.532;11.156;2023-08-31T12:01:00;16.70;99.90
15274;DHT22;7738;49.532;11.156;2023-08-31T12:03:42;16.70;99.90
15274;DHT22;7738;49.532;11.156;2023-08-31T12:06:17;16.90;99.40
15274;DHT22;7738;49.532;11.156;2023-08-31T12:08:48;17.00;99.90
15274;DHT22;7738;49.532;11.156;2023-08-31T12:11:19;17.10;99.90
15274;DHT22;7738;49.532;11.156;2023-08-31T12:13:50;17.20;99.90
15274;DHT22;7738;49.532;11.156;2023-08-31T12:16:23;17.50;99.90
15274;DHT22;7738;49.532;11.156;2023-08-31T12:18:58;17.70;97.60
15274;DHT22;7738;49.532;11.156;2023-08-31T12:21:29;17.50;97.10
15274;DHT22;7738;49.532;11.156;2023-08-31T12:23:59;17.40;97.60
15274;DHT22;7738;49.532;11.156;2023-08-31T12:26:31;17.30;97.80
15274;DHT22;7738;49.532;11.156;2023-08-31T12:29:01;17.40;98.40
15274;DHT22;7738;49.532;11.156;2023-08-31T12:31:34;17.50;97.80
15274;DHT22;7738;49.532;11.156;2023-08-31T12:34:05;18.10;98.70
15274;DHT22;7738;49.532;11.156;2023-08-31T12:36:36;17.70;98.40
15274;DHT22;7738;49.532;11.156;2023-08-31T12:39:08;17.70;97.90
15274;DHT22;7738;49.532;11.156;2023-08-31T12:41:39;17.80;97.80
15274;DHT22;7738;49.532;11.156;2023-08-31T12:44:09;18.60;98.50
15274;DHT22;7738;49.532;11.156;2023-08-31T12:46:42;17.90;98.60
15274;DHT22;7738;49.532;11.156;2023-08-31T12:49:12;18.00;96.10
15274;DHT22;7738;49.532;11.156;2023-08-31T12:51:42;17.80;95.60
15274;DHT22;7738;49.532;11.156;2023-08-31T12:54:13;18.00;95.00
15274;DHT22;7738;49.532;11.156;2023-08-31T12:56:43;17.90;95.20
15274;DHT22;7738;49.532;11.156;2023-08-31T12:59:13;18.00;96.50
15274;DHT22;7738;49.532;11.156;2023-08-31T13:01:46;18.10;94.80
15274;DHT22;7738;49.532;11.156;2023-08-31T13:04:16;18.10;93.90
15274;DHT22;7738;49.532;11.156;2023-08-31T13:06:46;17.60;92.90
15274;DHT22;7738;49.532;11.156;2023-08-31T13:09:16;17.90;93.50
15274;DHT22;7738;49.532;11.156;2023-08-31T13:11:46;18.00;92.90
15274;DHT22;7738;49.532;11.156;2023-08-31T13:14:16;18.10;93.50
15274;DHT22;7738;49.532;11.156;2023-08-31T13:16:49;18.40;92.60
15274;DHT22;7738;49.532;11.156;2023-08-31T13:19:20;18.40;92.50
15274;DHT22;7738;49.532;11.156;2023-08-31T13:21:50;18.40;93.10
15274;DHT22;7738;49.532;11.156;2023-08-31T13:24:20;18.40;93.80
15274;DHT22;7738;49.532;11.156;2023-08-31T13:26:51;18.50;94.60
15274;DHT22;7738;49.532;11.156;2023-08-31T13:29:22;18.60;94.50
15274;DHT22;7738;49.532;11.156;2023-08-31T13:31:54;18.60;93.00
15274;DHT22;7738;49.532;11.156;2023-08-31T13:34:25;18.50;92.20
15274;DHT22;7738;49.532;11.156;2023-08-31T13:36:55;18.90;92.30
15274;DHT22;7738;49.532;11.156;2023-08-31T13:39:26;19.40;92.40
15274;DHT22;7738;49.532;11.156;2023-08-31T13:41:56;19.70;91.10
15274;DHT22;7738;49.532;11.156;2023-08-31T13:44:29;19.60;90.20
15274;DHT22;7738;49.532;11.156;2023-08-31T13:47:02;19.80;91.10
15274;DHT22;7738;49.532;11.156;2023-08-31T13:49:33;19.70;90.50
15274;DHT22;7738;49.532;11.156;2023-08-31T13:52:04;19.60;89.60
15274;DHT22;7738;49.532;11.156;2023-08-31T13:54:36;19.50;90.50
15274;DHT22;7738;49.532;11.156;2023-08-31T13:57:06;19.80;90.70
15274;DHT22;7738;49.532;11.156;2023-08-31T13:59:36;20.20;90.50
15274;DHT22;7738;49.532;11.156;2023-08-31T14:02:09;20.60;90.50
15274;DHT22;7738;49.532;11.156;2023-08-31T14:04:39;20.70;89.80
15274;DHT22;7738;49.532;11.156;2023-08-31T14:07:10;20.30;85.40
15274;DHT22;7738;49.532;11.156;2023-08-31T14:09:40;20.00;89.50
15274;DHT22;7738;49.532;11.156;2023-08-31T14:12:10;19.70;89.70
15274;DHT22;7738;49.532;11.156;2023-08-31T14:14:40;20.00;88.50
15274;DHT22;7738;49.532;11.156;2023-08-31T14:17:15;20.00;90.00
15274;DHT22;7738;49.532;11.156;2023-08-31T14:19:46;20.30;90.10
15274;DHT22;7738;49.532;11.156;2023-08-31T14:22:16;20.60;85.50
15274;DHT22;7738;49.532;11.156;2023-08-31T14:24:46;21.00;86.20
15274;DHT22;7738;49.532;11.156;2023-08-31T14:27:16;21.70;82.90
15274;DHT22;7738;49.532;11.156;2023-08-31T14:29:46;20.40;80.00
15274;DHT22;7738;49.532;11.156;2023-08-31T14:32:19;19.90;80.90
15274;DHT22;7738;49.532;11.156;2023-08-31T14:34:49;19.40;83.20
15274;DHT22;7738;49.532;11.156;2023-08-31T14:37:19;19.10;83.40
15274;DHT22;7738;49.532;11.156;2023-08-31T14:39:50;19.30;85.20
15274;DHT22;7738;49.532;11.156;2023-08-31T14:42:20;18.90;87.90
15274;DHT22;7738;49.532;11.156;2023-08-31T14:44:50;18.90;89.10
15274;DHT22;7738;49.532;11.156;2023-08-31T14:47:23;19.00;87.70
15274;DHT22;7738;49.532;11.156;2023-08-31T14:49:55;19.10;87.00
15274;DHT22;7738;49.532;11.156;2023-08-31T14:52:25;19.00;87.50
15274;DHT22;7738;49.532;11.156;2023-08-31T14:54:56;19.30;86.60
15274;DHT22;7738;49.532;11.156;2023-08-31T14:57:26;19.30;85.30
15274;DHT22;7738;49.532;11.156;2023-08-31T14:59:56;20.30;89.20
15274;DHT22;7738;49.532;11.156;2023-08-31T15:02:35;19.90;88.90
15274;DHT22;7738;49.532;11.156;2023-08-31T15:05:06;19.60;88.20
15274;DHT22;7738;49.532;11.156;2023-08-31T15:07:36;19.20;89.20
15274;DHT22;7738;49.532;11.156;2023-08-31T15:10:07;20.20;86.60
15274;DHT22;7738;49.532;11.156;2023-08-31T15:12:38;18.90;85.60
15274;DHT22;7738;49.532;11.156;2023-08-31T15:15:09;18.90;85.70
15274;DHT22;7738;49.532;11.156;2023-08-31T15:17:41;18.10;84.40
15274;DHT22;7738;49.532;11.156;2023-08-31T15:20:12;20.60;87.90
15274;DHT22;7738;49.532;11.156;2023-08-31T15:22:42;19.40;84.40
15274;DHT22;7738;49.532;11.156;2023-08-31T15:25:12;20.80;85.90
15274;DHT22;7738;49.532;11.156;2023-08-31T15:27:43;20.60;84.70
15274;DHT22;7738;49.532;11.156;2023-08-31T15:30:13;19.20;82.20
15274;DHT22;7738;49.532;11.156;2023-08-31T15:32:46;19.20;85.70
15274;DHT22;7738;49.532;11.156;2023-08-31T15:35:16;19.40;86.00
15274;DHT22;7738;49.532;11.156;2023-08-31T15:37:46;19.50;86.10
15274;DHT22;7738;49.532;11.156;2023-08-31T15:40:19;20.50;86.90
15274;DHT22;7738;49.532;11.156;2023-08-31T15:42:49;19.20;83.60
15274;DHT22;7738;49.532;11.156;2023-08-31T15:45:19;20.30;86.30
15274;DHT22;7738;49.532;11.156;2023-08-31T15:47:53;18.90;86.30
15274;DHT22;7738;49.532;11.156;2023-08-31T15:50:23;19.10;86.00
15274;DHT22;7738;49.532;11.156;2023-08-31T15:52:53;18.60;86.80
15274;DHT22;7738;49.532;11.156;2023-08-31T15:55:24;18.50;87.40
15274;DHT22;7738;49.532;11.156;2023-08-31T15:57:54;18.30;89.00